Time;durP1;ratioP1;P1;durP2;ratioP2;P2;SDS_P1;SDS_P2;PMS_P1;PMS_P2;Temp;Humidity;BMP_temperature;BMP_pressure;BME280_temperature;BME280_humidity;BME280_pressure;Samples;Min_cycle;Max_cycle;Signal;HPM_P1;HPM_P2
2022/03/30 00:01:01;;;;;;;30.58;14.10;;;;;;;;;;5015034;28;20101;-75
2022/03/30 00:03:27;;;;;;;27.42;13.63;;;;;;;;;;5013583;28;20057;-76
2022/03/30 00:05:52;;;;;;;23.10;13.18;;;;;;;;;;5013333;28;20113;-75
2022/03/30 00:08:17;;;;;;;26.45;13.30;;;;;;;;;;5013639;28;20497;-76
2022/03/30 00:10:43;;;;;;;27.38;13.52;;;;;;;;;;5013631;28;20018;-75
2022/03/30 00:13:11;;;;;;;30.98;14.60;;;;;;;;;;5014680;28;20440;-73
2022/03/30 00:15:36;;;;;;;27.98;13.13;;;;;;;;;;5013305;28;20120;-77
2022/03/30 00:18:01;;;;;;;29.10;13.13;;;;;;;;;;5013351;28;20113;-73
2022/03/30 00:20:27;;;;;;;28.92;11.88;;;;;;;;;;5013609;28;20033;-76
2022/03/30 00:22:52;;;;;;;27.23;12.30;;;;;;;;;;5009652;28;20018;-74
2022/03/30 00:25:18;;;;;;;21.67;11.73;;;;;;;;;;4994726;28;20031;-78
2022/03/30 00:27:46;;;;;;;22.77;10.40;;;;;;;;;;4994949;28;20474;-75
2022/03/30 00:30:12;;;;;;;24.10;10.70;;;;;;;;;;4993511;28;20029;-74
2022/03/30 00:32:38;;;;;;;22.73;10.52;;;;;;;;;;4993260;28;20073;-74
2022/03/30 00:35:03;;;;;;;18.63;9.95;;;;;;;;;;4993318;28;20379;-76
2022/03/30 00:37:28;;;;;;;25.15;11.43;;;;;;;;;;5006027;28;20022;-76
2022/03/30 00:39:54;;;;;;;26.10;10.00;;;;;;;;;;5000047;28;20581;-76
2022/03/30 00:42:21;;;;;;;21.48;10.13;;;;;;;;;;4994463;28;20022;-76
2022/03/30 00:44:49;;;;;;;19.40;9.35;;;;;;;;;;4993229;28;20126;-76
2022/03/30 00:47:14;;;;;;;23.20;9.68;;;;;;;;;;4993282;28;20026;-75
2022/03/30 00:49:40;;;;;;;25.67;11.30;;;;;;;;;;4994272;28;20033;-77
2022/03/30 00:52:05;;;;;;;25.55;9.95;;;;;;;;;;5007156;28;20022;-76
2022/03/30 00:54:30;;;;;;;21.95;10.35;;;;;;;;;;5014054;28;20025;-77
2022/03/30 00:56:55;;;;;;;22.10;10.45;;;;;;;;;;5013983;28;20014;-76
2022/03/30 00:59:21;;;;;;;21.40;10.73;;;;;;;;;;5012654;28;20025;-78
2022/03/30 01:01:46;;;;;;;23.65;9.70;;;;;;;;;;5013719;28;20021;-76
2022/03/30 01:04:11;;;;;;;21.23;10.00;;;;;;;;;;5013769;28;20477;-77
2022/03/30 01:06:36;;;;;;;19.27;9.25;;;;;;;;;;5012913;28;20417;-76
2022/03/30 01:09:02;;;;;;;23.92;10.43;;;;;;;;;;5011720;28;20033;-76
2022/03/30 01:11:28;;;;;;;18.95;9.82;;;;;;;;;;4996223;28;20045;-76
2022/03/30 01:13:53;;;;;;;26.55;10.63;;;;;;;;;;4992760;28;20019;-76
2022/03/30 01:16:20;;;;;;;26.30;10.10;;;;;;;;;;4994013;28;20072;-75
2022/03/30 01:18:46;;;;;;;23.33;10.05;;;;;;;;;;4992689;28;20022;-77
2022/03/30 01:21:11;;;;;;;21.90;9.27;;;;;;;;;;4993996;28;20037;-75
2022/03/30 01:23:36;;;;;;;20.02;8.90;;;;;;;;;;4993881;28;20014;-77
2022/03/30 01:28:36;;;;;;;18.55;7.55;;;;;;;;;;4973437;28;20043;-85
2022/03/30 01:33:45;;;;;;;15.10;7.07;;;;;;;;;;4976896;28;20042;-85
2022/03/30 01:36:11;;;;;;;17.27;7.32;;;;;;;;;;4976272;28;20015;-81
2022/03/30 01:38:36;;;;;;;15.40;6.15;;;;;;;;;;4974821;28;20327;-82
2022/03/30 01:41:02;;;;;;;22.05;7.38;;;;;;;;;;4973918;28;20027;-79
2022/03/30 01:43:28;;;;;;;15.63;6.38;;;;;;;;;;4973906;28;20049;-82
2022/03/30 01:45:53;;;;;;;17.05;6.65;;;;;;;;;;4975414;28;20048;-80
2022/03/30 01:48:19;;;;;;;14.88;5.88;;;;;;;;;;4975220;28;20462;-82
2022/03/30 01:50:44;;;;;;;14.50;6.75;;;;;;;;;;4975026;28;20025;-79
2022/03/30 01:53:09;;;;;;;16.13;6.72;;;;;;;;;;4974704;28;20026;-80
2022/03/30 01:55:34;;;;;;;19.25;6.60;;;;;;;;;;4974240;28;20015;-79
2022/03/30 01:58:01;;;;;;;16.75;6.50;;;;;;;;;;4972471;28;20022;-82
2022/03/30 02:00:27;;;;;;;16.88;6.00;;;;;;;;;;4964219;28;20056;-80
2022/03/30 02:02:52;;;;;;;15.70;6.25;;;;;;;;;;4955073;28;20444;-80
2022/03/30 02:05:18;;;;;;;14.93;5.18;;;;;;;;;;4956361;28;20062;-81
2022/03/30 02:07:44;;;;;;;16.13;5.82;;;;;;;;;;4956486;28;20110;-81
2022/03/30 02:10:09;;;;;;;14.35;5.45;;;;;;;;;;4955197;28;20106;-82
2022/03/30 02:12:35;;;;;;;17.35;5.97;;;;;;;;;;4957050;28;20455;-82
2022/03/30 02:15:01;;;;;;;13.82;4.50;;;;;;;;;;4974270;28;20104;-81
2022/03/30 02:17:29;;;;;;;10.70;5.10;;;;;;;;;;4974399;28;20534;-82
2022/03/30 02:19:55;;;;;;;17.27;5.32;;;;;;;;;;4973466;28;20037;-77
2022/03/30 02:22:22;;;;;;;13.57;4.93;;;;;;;;;;4974225;28;20535;-78
2022/03/30 02:24:47;;;;;;;20.75;5.78;;;;;;;;;;4974167;28;20146;-80
2022/03/30 02:27:12;;;;;;;16.75;5.97;;;;;;;;;;4974612;28;20054;-79
2022/03/30 02:29:37;;;;;;;14.88;6.50;;;;;;;;;;4973198;28;20121;-79
2022/03/30 02:32:03;;;;;;;18.10;6.05;;;;;;;;;;4968088;28;20019;-79
2022/03/30 02:34:28;;;;;;;18.77;5.68;;;;;;;;;;4954824;28;20527;-79
2022/03/30 02:36:53;;;;;;;14.65;6.95;;;;;;;;;;4954549;28;20479;-80
2022/03/30 02:39:19;;;;;;;19.98;7.70;;;;;;;;;;4955585;28;20140;-79
2022/03/30 02:41:44;;;;;;;19.85;6.82;;;;;;;;;;4953248;29;20046;-80
2022/03/30 02:44:09;;;;;;;16.48;6.35;;;;;;;;;;4954666;28;20106;-80
2022/03/30 02:46:35;;;;;;;15.50;6.45;;;;;;;;;;4967465;28;20019;-78
2022/03/30 02:49:00;;;;;;;19.92;5.97;;;;;;;;;;4960996;28;20046;-80
2022/03/30 02:51:27;;;;;;;13.27;5.97;;;;;;;;;;4957991;28;20042;-78
2022/03/30 02:53:53;;;;;;;19.98;5.88;;;;;;;;;;4954668;28;20074;-81
2022/03/30 02:56:18;;;;;;;16.73;5.22;;;;;;;;;;4954792;28;20098;-79
2022/03/30 02:58:43;;;;;;;17.52;5.95;;;;;;;;;;4956660;28;20019;-81
2022/03/30 03:01:09;;;;;;;15.45;5.50;;;;;;;;;;4954570;28;20044;-78
2022/03/30 03:03:34;;;;;;;19.27;5.63;;;;;;;;;;4960625;28;20019;-77
2022/03/30 03:05:59;;;;;;;12.35;5.63;;;;;;;;;;4968105;28;20103;-79
2022/03/30 03:08:24;;;;;;;10.15;5.30;;;;;;;;;;4955481;28;20415;-78
2022/03/30 03:10:50;;;;;;;16.35;5.45;;;;;;;;;;4957951;28;20019;-79
2022/03/30 03:13:16;;;;;;;18.10;5.60;;;;;;;;;;4957909;28;20103;-79
2022/03/30 03:15:42;;;;;;;15.88;6.05;;;;;;;;;;4957997;28;20020;-79
2022/03/30 03:18:07;;;;;;;17.67;5.60;;;;;;;;;;4960920;28;20147;-80
2022/03/30 03:20:33;;;;;;;15.18;5.85;;;;;;;;;;4973891;28;20019;-80
2022/03/30 03:23:01;;;;;;;15.93;5.07;;;;;;;;;;4957726;28;20106;-80
2022/03/30 03:25:29;;;;;;;12.00;4.65;;;;;;;;;;4958217;28;20074;-85
2022/03/30 03:27:54;;;;;;;18.50;6.13;;;;;;;;;;4956658;28;20031;-84
2022/03/30 03:30:20;;;;;;;18.80;5.57;;;;;;;;;;4958820;28;20364;-85
2022/03/30 03:32:45;;;;;;;12.98;5.32;;;;;;;;;;4957026;28;20151;-84
2022/03/30 03:35:11;;;;;;;15.18;5.10;;;;;;;;;;4957447;28;20034;-81
2022/03/30 03:37:37;;;;;;;12.45;5.10;;;;;;;;;;4971547;28;20054;-83
2022/03/30 03:40:03;;;;;;;13.68;4.95;;;;;;;;;;4962875;28;20117;-81
2022/03/30 03:42:28;;;;;;;29.05;5.90;;;;;;;;;;4957197;28;20023;-82
2022/03/30 03:44:53;;;;;;;20.67;5.35;;;;;;;;;;4955734;28;20506;-83
2022/03/30 03:47:19;;;;;;;12.35;5.32;;;;;;;;;;4955822;29;20514;-76
2022/03/30 03:49:44;;;;;;;15.25;5.50;;;;;;;;;;4956821;28;20019;-79
2022/03/30 03:52:09;;;;;;;13.02;5.18;;;;;;;;;;4955370;29;20019;-78
2022/03/30 03:54:34;;;;;;;15.00;4.72;;;;;;;;;;4965489;28;20053;-78
2022/03/30 03:56:59;;;;;;;14.00;4.95;;;;;;;;;;4969083;28;20537;-77
2022/03/30 03:59:25;;;;;;;12.90;4.47;;;;;;;;;;4956810;28;20019;-77
2022/03/30 04:01:50;;;;;;;16.38;4.13;;;;;;;;;;4956893;29;20023;-80
2022/03/30 04:04:16;;;;;;;17.77;4.55;;;;;;;;;;4957258;28;20023;-80
2022/03/30 04:06:41;;;;;;;13.13;3.88;;;;;;;;;;4956749;28;20027;-80
2022/03/30 04:09:06;;;;;;;12.43;4.40;;;;;;;;;;4961054;28;20154;-79
2022/03/30 04:11:31;;;;;;;9.75;3.78;;;;;;;;;;4974036;28;20249;-78
2022/03/30 04:13:57;;;;;;;12.50;4.53;;;;;;;;;;4956343;28;20015;-80
2022/03/30 04:16:22;;;;;;;12.80;4.55;;;;;;;;;;4956455;28;20494;-79
2022/03/30 04:18:47;;;;;;;17.08;4.80;;;;;;;;;;4956121;28;20019;-80
2022/03/30 04:21:12;;;;;;;13.02;4.60;;;;;;;;;;4956489;28;20034;-77
2022/03/30 04:23:38;;;;;;;16.85;4.57;;;;;;;;;;4956621;28;20475;-80
2022/03/30 04:26:03;;;;;;;14.55;3.90;;;;;;;;;;4969671;28;20501;-78
2022/03/30 04:28:29;;;;;;;13.93;5.35;;;;;;;;;;4964916;28;20487;-79
2022/03/30 04:30:54;;;;;;;11.88;4.68;;;;;;;;;;4956475;28;20023;-80
2022/03/30 04:33:19;;;;;;;14.85;4.25;;;;;;;;;;4956798;28;20517;-80
2022/03/30 04:35:44;;;;;;;14.15;4.55;;;;;;;;;;4956507;29;20554;-78
2022/03/30 04:38:10;;;;;;;16.00;5.05;;;;;;;;;;4956732;28;20015;-78
2022/03/30 04:40:38;;;;;;;11.70;4.20;;;;;;;;;;4956226;28;20023;-78
2022/03/30 04:43:03;;;;;;;14.30;4.10;;;;;;;;;;4973532;28;20069;-79
2022/03/30 04:45:28;;;;;;;14.30;4.07;;;;;;;;;;4961806;28;20019;-81
2022/03/30 04:47:53;;;;;;;12.13;4.80;;;;;;;;;;4956854;28;20046;-79
2022/03/30 04:50:19;;;;;;;17.52;7.40;;;;;;;;;;4954296;29;20058;-79
2022/03/30 04:52:44;;;;;;;18.00;5.85;;;;;;;;;;4954290;28;20082;-79
2022/03/30 04:55:10;;;;;;;18.25;5.53;;;;;;;;;;4955624;28;20027;-79
2022/03/30 04:57:36;;;;;;;10.35;4.68;;;;;;;;;;4955541;28;20022;-79
2022/03/30 05:00:02;;;;;;;17.13;7.22;;;;;;;;;;4968884;28;20499;-78
2022/03/30 05:02:27;;;;;;;14.55;5.22;;;;;;;;;;4976367;28;20025;-79
2022/03/30 05:04:53;;;;;;;15.73;4.88;;;;;;;;;;4976961;28;20018;-81
2022/03/30 05:07:18;;;;;;;16.77;4.50;;;;;;;;;;4974427;28;20046;-81
2022/03/30 05:09:44;;;;;;;14.77;4.80;;;;;;;;;;4974755;28;20046;-80
2022/03/30 05:12:09;;;;;;;18.27;4.93;;;;;;;;;;4974290;28;20027;-79
2022/03/30 05:14:34;;;;;;;13.50;4.55;;;;;;;;;;4973508;28;20021;-80
2022/03/30 05:17:00;;;;;;;12.18;4.50;;;;;;;;;;4968784;28;20657;-79
2022/03/30 05:19:25;;;;;;;14.05;4.85;;;;;;;;;;4954493;28;20033;-82
2022/03/30 05:21:51;;;;;;;10.65;4.10;;;;;;;;;;4955084;28;20031;-79
2022/03/30 05:24:16;;;;;;;17.30;4.50;;;;;;;;;;4954769;28;20435;-79
2022/03/30 05:26:41;;;;;;;13.68;4.45;;;;;;;;;;4954915;28;20043;-80
2022/03/30 05:29:07;;;;;;;13.60;4.20;;;;;;;;;;4953802;28;20031;-79
2022/03/30 05:31:32;;;;;;;16.15;4.00;;;;;;;;;;4953641;28;20019;-78
2022/03/30 05:33:57;;;;;;;11.02;3.83;;;;;;;;;;4973578;28;20015;-81
2022/03/30 05:36:23;;;;;;;17.48;4.55;;;;;;;;;;4957134;28;20074;-80
2022/03/30 05:38:50;;;;;;;15.27;3.97;;;;;;;;;;4954613;28;20383;-80
2022/03/30 05:41:16;;;;;;;14.50;4.82;;;;;;;;;;4953296;29;20471;-81
2022/03/30 05:43:41;;;;;;;13.82;4.47;;;;;;;;;;4953395;29;20027;-82
2022/03/30 05:46:06;;;;;;;12.15;3.85;;;;;;;;;;4953103;28;20031;-82
2022/03/30 05:48:32;;;;;;;19.58;4.30;;;;;;;;;;4954272;28;20027;-82
2022/03/30 05:50:58;;;;;;;17.80;4.22;;;;;;;;;;4971918;28;20033;-81
2022/03/30 05:53:23;;;;;;;12.80;3.63;;;;;;;;;;4956930;28;20368;-80
2022/03/30 05:55:48;;;;;;;13.48;3.80;;;;;;;;;;4954472;28;20107;-81
2022/03/30 05:58:14;;;;;;;12.52;3.88;;;;;;;;;;4954687;28;20043;-79
2022/03/30 06:00:40;;;;;;;12.75;4.65;;;;;;;;;;4954181;28;20341;-81
2022/03/30 06:03:05;;;;;;;10.40;3.72;;;;;;;;;;4953108;29;20034;-81
2022/03/30 06:05:30;;;;;;;14.50;3.20;;;;;;;;;;4959562;28;20457;-82
2022/03/30 06:07:58;;;;;;;10.35;3.30;;;;;;;;;;4968517;28;20023;-81
2022/03/30 06:10:25;;;;;;;9.43;3.88;;;;;;;;;;4954198;28;20023;-81
2022/03/30 06:12:50;;;;;;;17.08;4.47;;;;;;;;;;4954071;28;20024;-80
2022/03/30 06:15:15;;;;;;;17.08;3.70;;;;;;;;;;4954172;28;20085;-81
2022/03/30 06:17:41;;;;;;;17.80;4.10;;;;;;;;;;4954069;28;20118;-78
2022/03/30 06:20:06;;;;;;;15.13;4.75;;;;;;;;;;4953767;28;20062;-80
2022/03/30 06:22:32;;;;;;;8.20;3.10;;;;;;;;;;4960122;28;20030;-81
2022/03/30 06:24:59;;;;;;;17.60;3.75;;;;;;;;;;4966569;28;20110;-81
2022/03/30 06:27:24;;;;;;;19.50;4.25;;;;;;;;;;4953681;28;20506;-81
2022/03/30 06:29:50;;;;;;;15.90;3.90;;;;;;;;;;4952508;29;20027;-81
2022/03/30 06:32:15;;;;;;;15.13;3.97;;;;;;;;;;4953715;28;20023;-82
2022/03/30 06:34:40;;;;;;;13.10;3.60;;;;;;;;;;4953779;28;20054;-81
2022/03/30 06:37:05;;;;;;;15.43;3.92;;;;;;;;;;4953989;28;20015;-80
2022/03/30 06:39:32;;;;;;;11.77;3.00;;;;;;;;;;4955373;28;20082;-82
2022/03/30 06:41:57;;;;;;;10.43;3.95;;;;;;;;;;4967616;28;20043;-82
2022/03/30 06:44:23;;;;;;;10.43;3.80;;;;;;;;;;4952629;29;20478;-79
2022/03/30 06:46:48;;;;;;;15.25;4.93;;;;;;;;;;4953991;28;20019;-81
2022/03/30 06:49:14;;;;;;;14.15;4.57;;;;;;;;;;4954106;28;20471;-81
2022/03/30 06:51:39;;;;;;;13.38;3.83;;;;;;;;;;4954186;28;20031;-80
2022/03/30 06:54:05;;;;;;;8.90;3.03;;;;;;;;;;4954313;28;20022;-80
2022/03/30 06:56:31;;;;;;;15.68;4.18;;;;;;;;;;4957722;28;20166;-83
2022/03/30 06:58:56;;;;;;;14.38;4.05;;;;;;;;;;4968991;28;20387;-82
2022/03/30 07:01:21;;;;;;;16.15;3.65;;;;;;;;;;4954635;28;20015;-79
2022/03/30 07:03:47;;;;;;;15.88;3.85;;;;;;;;;;4954461;28;20020;-81
2022/03/30 07:06:12;;;;;;;16.60;4.03;;;;;;;;;;4953435;28;20513;-80
2022/03/30 07:11:22;;;;;;;12.23;4.50;;;;;;;;;;4953414;29;20117;-83
2022/03/30 07:13:47;;;;;;;10.98;3.60;;;;;;;;;;4960194;28;20054;-81
2022/03/30 07:16:13;;;;;;;9.75;3.72;;;;;;;;;;4965748;28;20062;-83
2022/03/30 07:18:38;;;;;;;17.98;5.30;;;;;;;;;;4954603;28;20027;-85
2022/03/30 07:21:03;;;;;;;9.50;3.33;;;;;;;;;;4985734;28;20038;-81
2022/03/30 07:23:31;;;;;;;12.45;3.72;;;;;;;;;;4953859;28;20027;-82
2022/03/30 07:26:00;;;;;;;9.25;3.35;;;;;;;;;;4953953;28;20031;-80
2022/03/30 07:28:25;;;;;;;9.20;3.50;;;;;;;;;;5014367;23;20041;-75
2022/03/30 07:30:50;;;;;;;13.98;3.85;;;;;;;;;;5030098;28;20048;-75
2022/03/30 07:33:16;;;;;;;16.90;5.78;;;;;;;;;;5031050;28;20009;-75
2022/03/30 07:35:46;;;;;;;11.73;3.55;;;;;;;;;;5031300;28;20350;-76
2022/03/30 07:38:11;;;;;;;11.27;3.72;;;;;;;;;;5031224;28;20024;-75
2022/03/30 07:40:37;;;;;;;12.18;3.65;;;;;;;;;;5031595;28;20488;-74
2022/03/30 07:43:02;;;;;;;9.63;3.10;;;;;;;;;;5029817;28;20499;-75
2022/03/30 07:45:27;;;;;;;9.27;2.90;;;;;;;;;;5029790;28;20025;-75
2022/03/30 07:47:53;;;;;;;11.60;3.80;;;;;;;;;;5028885;28;20034;-74
2022/03/30 07:50:18;;;;;;;13.27;4.28;;;;;;;;;;5029671;28;20022;-75
2022/03/30 07:52:45;;;;;;;13.13;4.30;;;;;;;;;;5026713;28;20022;-75
2022/03/30 07:55:11;;;;;;;16.55;4.78;;;;;;;;;;5012707;28;20113;-74
2022/03/30 07:57:39;;;;;;;13.23;4.22;;;;;;;;;;5013521;28;20076;-74
2022/03/30 08:00:06;;;;;;;14.37;3.40;;;;;;;;;;5013572;28;20032;-75
2022/03/30 08:02:32;;;;;;;12.88;4.72;;;;;;;;;;5013051;28;20060;-75
2022/03/30 08:04:57;;;;;;;10.48;3.53;;;;;;;;;;5017336;28;20021;-75
2022/03/30 08:07:22;;;;;;;14.20;4.15;;;;;;;;;;5034069;28;20033;-76
2022/03/30 08:09:48;;;;;;;11.98;3.00;;;;;;;;;;5034598;28;20068;-75
2022/03/30 08:12:17;;;;;;;12.73;2.97;;;;;;;;;;5034431;28;20440;-78
2022/03/30 08:14:42;;;;;;;;;;;;;;;;;;5034868;28;20009;-76
2022/03/30 08:17:08;;;;;;;10.45;3.40;;;;;;;;;;5032889;28;19905;-76
2022/03/30 08:19:33;;;;;;;13.02;3.13;;;;;;;;;;5032901;28;20022;-76
2022/03/30 08:24:46;;;;;;;11.88;3.08;;;;;;;;;;5034500;28;20089;-77
2022/03/30 08:27:12;;;;;;;15.40;3.65;;;;;;;;;;5034001;28;20025;-78
2022/03/30 08:29:38;;;;;;;11.20;4.15;;;;;;;;;;5032723;28;20029;-77
2022/03/30 08:32:05;;;;;;;12.45;3.30;;;;;;;;;;5034296;28;20075;-75
2022/03/30 08:34:30;;;;;;;15.45;3.92;;;;;;;;;;5032680;28;20021;-75
2022/03/30 08:36:55;;;;;;;12.88;3.47;;;;;;;;;;5031754;28;20025;-75
2022/03/30 08:39:20;;;;;;;12.10;3.70;;;;;;;;;;5034084;28;20427;-74
2022/03/30 08:41:46;;;;;;;9.63;3.60;;;;;;;;;;5032723;28;20117;-75
2022/03/30 08:44:17;;;;;;;16.38;4.10;;;;;;;;;;5033871;28;20096;-74
2022/03/30 08:46:44;;;;;;;13.82;4.20;;;;;;;;;;5034236;28;20480;-76
2022/03/30 08:49:09;;;;;;;9.98;4.75;;;;;;;;;;5033787;28;20067;-76
2022/03/30 08:51:37;;;;;;;10.43;3.80;;;;;;;;;;5031722;28;20423;-75
2022/03/30 08:54:03;;;;;;;13.68;4.13;;;;;;;;;;5032286;28;20472;-75
2022/03/30 08:56:30;;;;;;;10.82;4.05;;;;;;;;;;5032336;28;20028;-75
2022/03/30 08:59:00;;;;;;;16.45;5.18;;;;;;;;;;5035121;28;20100;-76
2022/03/30 09:01:25;;;;;;;9.95;4.38;;;;;;;;;;5034041;28;20085;-73
2022/03/30 09:03:57;;;;;;;21.95;5.63;;;;;;;;;;5033111;28;20472;-74
2022/03/30 09:06:41;;;;;;;16.50;4.80;;;;;;;;;;5032149;28;20021;-75
2022/03/30 09:09:07;;;;;;;13.13;4.20;;;;;;;;;;5031833;28;20061;-75
2022/03/30 09:11:41;;;;;;;12.18;4.43;;;;;;;;;;5033382;28;20138;-75
2022/03/30 09:14:07;;;;;;;15.88;5.15;;;;;;;;;;5032890;28;20025;-74
2022/03/30 09:16:39;;;;;;;14.57;3.97;;;;;;;;;;5032983;28;20096;-74
2022/03/30 09:19:05;;;;;;;12.25;4.97;;;;;;;;;;5032705;28;20036;-74
2022/03/30 09:21:40;;;;;;;12.35;4.05;;;;;;;;;;5031682;28;20025;-73
2022/03/30 09:24:06;;;;;;;20.30;3.95;;;;;;;;;;5031835;28;20034;-75
2022/03/30 09:26:31;;;;;;;10.15;4.00;;;;;;;;;;5032863;28;20033;-74
2022/03/30 09:28:57;;;;;;;13.68;4.28;;;;;;;;;;5032706;28;20540;-74
2022/03/30 09:31:22;;;;;;;40.80;7.85;;;;;;;;;;5031445;28;20401;-74
2022/03/30 09:33:48;;;;;;;32.03;8.40;;;;;;;;;;5031250;28;20432;-74
2022/03/30 09:36:29;;;;;;;17.40;5.47;;;;;;;;;;5031420;28;20029;-74
2022/03/30 09:38:55;;;;;;;18.75;5.45;;;;;;;;;;5031395;28;20491;-74
2022/03/30 09:41:20;;;;;;;75.57;15.50;;;;;;;;;;5031771;28;20022;-73
2022/03/30 09:43:46;;;;;;;34.50;9.15;;;;;;;;;;5031029;28;20471;-74
2022/03/30 09:46:12;;;;;;;19.48;5.45;;;;;;;;;;5031333;28;20052;-74
2022/03/30 09:48:49;;;;;;;11.20;4.47;;;;;;;;;;5032348;28;20096;-73
2022/03/30 09:51:15;;;;;;;16.35;3.92;;;;;;;;;;5030987;28;20022;-73
2022/03/30 09:53:42;;;;;;;12.48;4.82;;;;;;;;;;5032198;28;20067;-74
2022/03/30 09:56:14;;;;;;;12.18;3.90;;;;;;;;;;5031072;28;20018;-73
2022/03/30 09:58:40;;;;;;;14.60;4.50;;;;;;;;;;5029621;28;20029;-73
2022/03/30 10:01:10;;;;;;;13.70;3.60;;;;;;;;;;5030775;28;20075;-73
2022/03/30 10:03:36;;;;;;;14.50;4.70;;;;;;;;;;5032044;28;20021;-74
2022/03/30 10:06:02;;;;;;;11.23;4.57;;;;;;;;;;5032117;28;20025;-74
2022/03/30 10:08:28;;;;;;;14.65;4.13;;;;;;;;;;5030784;28;20048;-75
2022/03/30 10:10:53;;;;;;;15.10;4.20;;;;;;;;;;5031726;28;20025;-75
2022/03/30 10:13:18;;;;;;;11.88;4.22;;;;;;;;;;5031830;28;20088;-74
2022/03/30 10:15:44;;;;;;;12.55;4.32;;;;;;;;;;5032027;28;20022;-74
2022/03/30 10:18:09;;;;;;;12.15;3.92;;;;;;;;;;5030483;28;20009;-74
2022/03/30 10:20:35;;;;;;;10.20;4.55;;;;;;;;;;5031819;28;20021;-76
2022/03/30 10:23:04;;;;;;;13.73;4.47;;;;;;;;;;5029168;28;20017;-74
2022/03/30 10:25:29;;;;;;;;;;;;;;;;;;5028536;28;20053;-74
2022/03/30 10:28:06;;;;;;;10.80;3.50;;;;;;;;;;5027652;28;19962;-75
2022/03/30 10:30:32;;;;;;;10.52;3.80;;;;;;;;;;5031077;28;20075;-76
2022/03/30 10:33:01;;;;;;;19.70;4.03;;;;;;;;;;5028519;28;20433;-76
2022/03/30 10:35:40;;;;;;;24.80;7.40;;;;;;;;;;5030169;28;20105;-76
2022/03/30 10:38:06;;;;;;;17.35;6.93;;;;;;;;;;5041896;28;20116;-75
2022/03/30 10:40:31;;;;;;;12.55;5.07;;;;;;;;;;5032350;28;20116;-75
2022/03/30 10:42:58;;;;;;;18.70;4.63;;;;;;;;;;5043237;28;20033;-75
2022/03/30 10:45:42;;;;;;;19.48;4.80;;;;;;;;;;5037872;28;20029;-76
2022/03/30 10:48:13;;;;;;;16.27;4.78;;;;;;;;;;5029143;28;20025;-75
2022/03/30 10:50:43;;;;;;;14.20;4.28;;;;;;;;;;5030824;28;20060;-75
2022/03/30 10:53:27;;;;;;;14.13;4.40;;;;;;;;;;5031344;28;20025;-74
2022/03/30 10:55:52;;;;;;;16.38;4.70;;;;;;;;;;5031551;28;20027;-76
2022/03/30 10:58:19;;;;;;;13.10;3.78;;;;;;;;;;5031769;28;20384;-75
2022/03/30 11:00:45;;;;;;;15.38;5.50;;;;;;;;;;5030733;28;20084;-75
2022/03/30 11:03:25;;;;;;;13.73;4.60;;;;;;;;;;5029773;28;20436;-75
2022/03/30 11:06:06;;;;;;;14.70;5.13;;;;;;;;;;5028867;28;20017;-74
2022/03/30 11:08:32;;;;;;;16.40;4.93;;;;;;;;;;5028069;28;20116;-75
2022/03/30 11:11:00;;;;;;;14.98;4.40;;;;;;;;;;5028152;28;20156;-75
2022/03/30 11:13:25;;;;;;;11.87;4.60;;;;;;;;;;5029567;28;20014;-73
2022/03/30 11:16:17;;;;;;;17.67;4.32;;;;;;;;;;5029798;28;20020;-74
2022/03/30 11:18:53;;;;;;;11.90;4.22;;;;;;;;;;5029886;28;20060;-73
2022/03/30 11:21:18;;;;;;;12.52;4.30;;;;;;;;;;5030017;28;20024;-74
2022/03/30 11:23:56;;;;;;;14.73;4.38;;;;;;;;;;5009540;28;20060;-73
2022/03/30 11:26:22;;;;;;;12.65;4.30;;;;;;;;;;5030019;28;20543;-74
2022/03/30 11:28:47;;;;;;;22.52;4.70;;;;;;;;;;5030497;28;20040;-74
2022/03/30 11:31:22;;;;;;;13.30;4.15;;;;;;;;;;5033866;28;20022;-74
2022/03/30 11:34:28;;;;;;;16.13;5.55;;;;;;;;;;5032012;28;20117;-73
2022/03/30 11:36:53;;;;;;;15.40;4.45;;;;;;;;;;4969872;28;20143;-73
2022/03/30 11:39:21;;;;;;;11.48;5.15;;;;;;;;;;4976994;28;21088;-74
2022/03/30 11:41:53;;;;;;;14.35;5.88;;;;;;;;;;4976226;28;20062;-74
2022/03/30 11:47:04;;;;;;;12.95;5.30;;;;;;;;;;4992597;28;20088;-75
2022/03/30 11:49:30;;;;;;;20.52;5.15;;;;;;;;;;4992320;28;20018;-74
2022/03/30 11:51:55;;;;;;;12.13;4.22;;;;;;;;;;4992666;28;20031;-74
2022/03/30 11:54:21;;;;;;;13.07;4.43;;;;;;;;;;4992598;28;20065;-75
2022/03/30 11:56:50;;;;;;;13.05;5.03;;;;;;;;;;4991508;28;20375;-73
2022/03/30 11:59:18;;;;;;;16.17;5.82;;;;;;;;;;4992545;28;20081;-74
2022/03/30 12:01:44;;;;;;;12.88;4.28;;;;;;;;;;4982112;28;20038;-73
2022/03/30 12:04:12;;;;;;;17.17;4.80;;;;;;;;;;4992253;28;20069;-74
2022/03/30 12:06:44;;;;;;;15.75;4.95;;;;;;;;;;4995570;28;20511;-73
2022/03/30 12:09:14;;;;;;;10.40;4.30;;;;;;;;;;5032624;28;20013;-73
2022/03/30 12:11:40;;;;;;;12.75;4.80;;;;;;;;;;5032604;28;20021;-73
2022/03/30 12:14:11;;;;;;;14.80;5.10;;;;;;;;;;5032986;28;20013;-74
2022/03/30 12:16:38;;;;;;;15.63;5.88;;;;;;;;;;5033001;28;20013;-74
2022/03/30 12:19:03;;;;;;;18.15;4.72;;;;;;;;;;5017862;28;20101;-74
2022/03/30 12:21:31;;;;;;;12.90;4.53;;;;;;;;;;5034017;28;20100;-73
2022/03/30 12:24:04;;;;;;;21.00;5.47;;;;;;;;;;5034242;28;20025;-74
2022/03/30 12:26:31;;;;;;;13.43;5.53;;;;;;;;;;5034102;28;20258;-75
2022/03/30 12:29:03;;;;;;;17.00;5.43;;;;;;;;;;5032709;28;20033;-74
2022/03/30 12:31:31;;;;;;;12.65;4.57;;;;;;;;;;5032473;28;20018;-75
2022/03/30 12:33:57;;;;;;;;;;;;;;;;;;5032997;28;20075;-75
2022/03/30 12:36:22;;;;;;;18.00;5.50;;;;;;;;;;5033939;28;19909;-75
2022/03/30 12:38:50;;;;;;;13.68;4.97;;;;;;;;;;5032498;28;20750;-74
2022/03/30 12:41:27;;;;;;;16.58;5.18;;;;;;;;;;5032602;28;20026;-73
2022/03/30 12:43:56;;;;;;;13.45;5.93;;;;;;;;;;5031550;28;20077;-74
2022/03/30 12:46:22;;;;;;;20.35;5.28;;;;;;;;;;5031934;28;20029;-73
2022/03/30 12:48:47;;;;;;;15.50;6.03;;;;;;;;;;5030395;28;20025;-73
2022/03/30 12:51:18;;;;;;;17.33;4.93;;;;;;;;;;5030021;28;20028;-73
2022/03/30 12:53:45;;;;;;;11.38;4.93;;;;;;;;;;5031748;28;20051;-75
2022/03/30 12:56:18;;;;;;;12.88;5.53;;;;;;;;;;5031534;28;20018;-72
2022/03/30 12:58:53;;;;;;;13.93;5.70;;;;;;;;;;5033363;28;20547;-75
2022/03/30 13:01:35;;;;;;;14.02;4.85;;;;;;;;;;5033362;28;20504;-74
2022/03/30 13:04:02;;;;;;;21.77;6.75;;;;;;;;;;5028227;28;20052;-74
2022/03/30 13:06:28;;;;;;;24.10;5.47;;;;;;;;;;5025561;28;20083;-76
2022/03/30 13:09:02;;;;;;;17.05;4.75;;;;;;;;;;5031463;28;20116;-73
2022/03/30 13:11:28;;;;;;;19.08;5.22;;;;;;;;;;5032683;28;20013;-74
2022/03/30 13:13:53;;;;;;;11.43;4.63;;;;;;;;;;5031417;28;20017;-73
2022/03/30 13:16:18;;;;;;;19.48;5.50;;;;;;;;;;5031787;28;20036;-73
2022/03/30 13:18:59;;;;;;;17.30;5.22;;;;;;;;;;5031440;28;20025;-73
2022/03/30 13:21:24;;;;;;;15.85;4.75;;;;;;;;;;5030226;28;20026;-73
2022/03/30 13:23:50;;;;;;;13.88;4.68;;;;;;;;;;5032221;28;20024;-73
2022/03/30 13:26:26;;;;;;;10.32;5.03;;;;;;;;;;5032245;28;20048;-76
2022/03/30 13:28:51;;;;;;;15.32;4.45;;;;;;;;;;5045105;22;20034;-77
2022/03/30 13:31:18;;;;;;;11.85;5.07;;;;;;;;;;5029943;28;20079;-77
2022/03/30 13:33:43;;;;;;;15.00;5.10;;;;;;;;;;5022137;28;20041;-77
2022/03/30 13:36:11;;;;;;;15.45;5.88;;;;;;;;;;5023496;28;20476;-77
2022/03/30 13:38:37;;;;;;;15.48;5.25;;;;;;;;;;5022316;28;20021;-77
2022/03/30 13:41:02;;;;;;;12.43;4.22;;;;;;;;;;5008115;28;20474;-77
2022/03/30 13:43:33;;;;;;;15.07;6.05;;;;;;;;;;4998265;28;20559;-77
2022/03/30 13:45:58;;;;;;;14.52;4.72;;;;;;;;;;5001015;28;20033;-77
2022/03/30 13:48:27;;;;;;;10.98;4.65;;;;;;;;;;5006548;28;20017;-76
2022/03/30 13:50:54;;;;;;;16.40;5.63;;;;;;;;;;4999234;28;20548;-77
2022/03/30 13:53:20;;;;;;;15.45;4.75;;;;;;;;;;4998991;28;20057;-77
2022/03/30 13:55:45;;;;;;;13.45;4.85;;;;;;;;;;5004154;28;20018;-77
2022/03/30 13:58:10;;;;;;;15.15;4.10;;;;;;;;;;5000144;28;20023;-76
2022/03/30 14:00:37;;;;;;;15.63;5.13;;;;;;;;;;5006715;28;20021;-77
2022/03/30 14:03:11;;;;;;;12.93;4.72;;;;;;;;;;4996090;28;20030;-77
2022/03/30 14:05:39;;;;;;;13.38;4.97;;;;;;;;;;5012470;28;20010;-77
2022/03/30 14:08:05;;;;;;;11.40;4.82;;;;;;;;;;5011233;28;20067;-77
2022/03/30 14:10:30;;;;;;;13.20;5.10;;;;;;;;;;5011078;28;20026;-76
2022/03/30 14:12:56;;;;;;;14.82;4.63;;;;;;;;;;5007036;28;20018;-77
2022/03/30 14:15:21;;;;;;;14.98;5.00;;;;;;;;;;4992816;28;20113;-76
2022/03/30 14:17:47;;;;;;;14.48;5.32;;;;;;;;;;4992627;28;20113;-77
2022/03/30 14:20:12;;;;;;;11.25;4.80;;;;;;;;;;4991152;28;20468;-76
2022/03/30 14:22:38;;;;;;;18.55;5.05;;;;;;;;;;4991461;28;20018;-77
2022/03/30 14:25:05;;;;;;;13.52;5.90;;;;;;;;;;4995972;28;20097;-77
2022/03/30 14:27:31;;;;;;;10.77;4.78;;;;;;;;;;5010455;28;20022;-77
2022/03/30 14:29:58;;;;;;;12.05;5.20;;;;;;;;;;4992275;28;20030;-77
2022/03/30 14:32:41;;;;;;;11.05;5.35;;;;;;;;;;4991851;28;20058;-77
2022/03/30 14:35:19;;;;;;;15.55;5.25;;;;;;;;;;4991178;28;20037;-77
2022/03/30 14:37:44;;;;;;;16.63;5.75;;;;;;;;;;4991162;28;20022;-77
2022/03/30 14:40:30;;;;;;;17.58;5.25;;;;;;;;;;4992528;28;20092;-77
2022/03/30 14:42:58;;;;;;;15.13;5.20;;;;;;;;;;4999962;28;20397;-77